イヌヴィック の空港の天気 - METARとTAF

イヌヴィック空港 ( CYEV / YEV ) - カナダ ノースウエスト準州イヌヴィック
飛行場実況気象(Metar)
観測時間09/22 18:00 MDT (09/23 00:00 UTC)
風向・風速北北西 5m/s 瞬間風速10m/s
視程10km以上
天気現象
少しの雲 雲底高度 910m
全天の4割程度の雲 雲底高度 2440m
全天の8割程度の雲 雲底高度 3660m
気温3℃
湿度60%
気圧1017.3hPa
METARCYEV 230000Z 34009G19KT 15SM FEW030 SCT080 BKN120 03/M04 A3002 RMK SC2AC1AC2 CVCTV CLD EMBD SLP173
過去の天気等 Google飛行場航空写真 Wunderground天気予報

過去48時間のMETAR

飛行場予報(TAF)
発表時間: 9/22 12:38 MDT (9/22 18:38 UTC)
予報対象時間: 22日13時 MDT ~ 23日1時 MDT
風向・風速北北西 5m/s 瞬間風速 10m/s
視程10km以上
少しの雲 雲底高度 610m
全天の8割程度の雲 雲底高度 2440m
22日13時 MDT ~ 22日23時 MDT に一時的に
視程6440m
天気現象弱い雪
全天の8割程度の雲 雲底高度 610m
全天を覆う雲 雲底高度 2130m
22日23時 MDT から
風向・風速北 4m/s
視程8050m
天気現象弱い雪
全天の4割程度の雲 雲底高度 300m
全天を覆う雲 雲底高度 1830m
22日23時 MDT ~ 23日1時 MDT に一時的に
視程1610m
天気現象弱いしゅう雪
全天を覆う雲 雲底高度 300m
TAF CYEV 221838Z 2219/2307 34010G20KT P6SM FEW020 BKN080
TEMPO 2219/2305 4SM -SN BKN020 OVC070
FM230500 36007KT 5SM -SN SCT010 OVC060
TEMPO 2305/2307 1SM -SHSN OVC010 RMK NXT FCST BY 230100Z